sensor_id;sensor_type;location;lat;lon;timestamp;P1;durP1;ratioP1;P2;durP2;ratioP2
71753;SDS011;59593;51.716;7.016;2023-03-23T00:01:27;11.87;;;5.93;;
71753;SDS011;59593;51.716;7.016;2023-03-23T00:03:56;9.13;;;5.47;;
71753;SDS011;59593;51.716;7.016;2023-03-23T00:06:23;8.83;;;5.47;;
71753;SDS011;59593;51.716;7.016;2023-03-23T00:08:50;9.63;;;5.50;;
71753;SDS011;59593;51.716;7.016;2023-03-23T00:11:22;10.93;;;5.50;;
71753;SDS011;59593;51.716;7.016;2023-03-23T00:13:51;8.87;;;5.53;;
71753;SDS011;59593;51.716;7.016;2023-03-23T00:16:21;7.30;;;4.97;;
71753;SDS011;59593;51.716;7.016;2023-03-23T00:21:31;10.13;;;4.67;;
71753;SDS011;59593;51.716;7.016;2023-03-23T00:24:00;7.17;;;4.37;;
71753;SDS011;59593;51.716;7.016;2023-03-23T00:26:28;7.80;;;4.83;;
71753;SDS011;59593;51.716;7.016;2023-03-23T00:28:55;5.57;;;4.37;;
71753;SDS011;59593;51.716;7.016;2023-03-23T00:31:21;7.20;;;4.33;;
71753;SDS011;59593;51.716;7.016;2023-03-23T00:33:47;6.13;;;4.43;;
71753;SDS011;59593;51.716;7.016;2023-03-23T00:36:12;7.30;;;4.20;;
71753;SDS011;59593;51.716;7.016;2023-03-23T00:38:39;7.80;;;4.20;;
71753;SDS011;59593;51.716;7.016;2023-03-23T00:41:06;4.63;;;4.10;;
71753;SDS011;59593;51.716;7.016;2023-03-23T00:43:32;6.93;;;4.20;;
71753;SDS011;59593;51.716;7.016;2023-03-23T00:46:01;5.60;;;3.97;;
71753;SDS011;59593;51.716;7.016;2023-03-23T00:48:28;6.97;;;3.90;;
71753;SDS011;59593;51.716;7.016;2023-03-23T00:50:54;6.60;;;3.57;;
71753;SDS011;59593;51.716;7.016;2023-03-23T00:53:21;6.30;;;3.40;;
71753;SDS011;59593;51.716;7.016;2023-03-23T00:55:47;6.50;;;3.80;;
71753;SDS011;59593;51.716;7.016;2023-03-23T00:58:14;7.53;;;3.70;;
71753;SDS011;59593;51.716;7.016;2023-03-23T01:00:40;6.70;;;3.70;;
71753;SDS011;59593;51.716;7.016;2023-03-23T01:03:06;5.77;;;3.60;;
71753;SDS011;59593;51.716;7.016;2023-03-23T01:05:34;4.83;;;3.43;;
71753;SDS011;59593;51.716;7.016;2023-03-23T01:08:01;5.23;;;3.47;;
71753;SDS011;59593;51.716;7.016;2023-03-23T01:10:27;5.30;;;3.70;;
71753;SDS011;59593;51.716;7.016;2023-03-23T01:12:53;6.60;;;3.53;;
71753;SDS011;59593;51.716;7.016;2023-03-23T01:15:20;7.50;;;3.87;;
71753;SDS011;59593;51.716;7.016;2023-03-23T01:17:46;6.63;;;3.50;;
71753;SDS011;59593;51.716;7.016;2023-03-23T01:20:13;6.73;;;3.60;;
71753;SDS011;59593;51.716;7.016;2023-03-23T01:22:40;5.23;;;3.77;;
71753;SDS011;59593;51.716;7.016;2023-03-23T01:25:07;6.43;;;3.60;;
71753;SDS011;59593;51.716;7.016;2023-03-23T01:27:35;6.13;;;3.50;;
71753;SDS011;59593;51.716;7.016;2023-03-23T01:30:01;4.37;;;3.53;;
71753;SDS011;59593;51.716;7.016;2023-03-23T01:32:28;5.77;;;3.07;;
71753;SDS011;59593;51.716;7.016;2023-03-23T01:34:53;7.13;;;3.70;;
71753;SDS011;59593;51.716;7.016;2023-03-23T01:37:19;5.03;;;3.43;;
71753;SDS011;59593;51.716;7.016;2023-03-23T01:39:46;5.73;;;3.20;;
71753;SDS011;59593;51.716;7.016;2023-03-23T01:42:12;5.37;;;2.87;;
71753;SDS011;59593;51.716;7.016;2023-03-23T01:47:03;5.33;;;3.37;;
71753;SDS011;59593;51.716;7.016;2023-03-23T01:49:30;4.73;;;3.57;;
71753;SDS011;59593;51.716;7.016;2023-03-23T01:52:07;4.27;;;3.10;;
71753;SDS011;59593;51.716;7.016;2023-03-23T01:54:38;4.43;;;3.30;;
71753;SDS011;59593;51.716;7.016;2023-03-23T01:57:13;4.97;;;3.10;;
71753;SDS011;59593;51.716;7.016;2023-03-23T01:59:42;4.83;;;3.20;;
71753;SDS011;59593;51.716;7.016;2023-03-23T02:02:10;5.87;;;3.17;;
71753;SDS011;59593;51.716;7.016;2023-03-23T02:04:37;6.67;;;3.20;;
71753;SDS011;59593;51.716;7.016;2023-03-23T02:07:04;4.77;;;2.87;;
71753;SDS011;59593;51.716;7.016;2023-03-23T02:09:30;5.20;;;2.80;;
71753;SDS011;59593;51.716;7.016;2023-03-23T02:11:56;4.07;;;2.80;;
71753;SDS011;59593;51.716;7.016;2023-03-23T02:14:23;4.77;;;3.07;;
71753;SDS011;59593;51.716;7.016;2023-03-23T02:37:02;4.47;;;3.17;;
71753;SDS011;59593;51.716;7.016;2023-03-23T02:42:04;4.73;;;2.90;;
71753;SDS011;59593;51.716;7.016;2023-03-23T02:44:32;4.43;;;2.93;;
71753;SDS011;59593;51.716;7.016;2023-03-23T02:47:00;6.93;;;2.97;;
71753;SDS011;59593;51.716;7.016;2023-03-23T02:49:31;4.30;;;2.87;;
71753;SDS011;59593;51.716;7.016;2023-03-23T02:52:01;4.53;;;2.97;;
71753;SDS011;59593;51.716;7.016;2023-03-23T02:54:33;3.40;;;2.90;;
71753;SDS011;59593;51.716;7.016;2023-03-23T02:57:00;3.43;;;3.00;;
71753;SDS011;59593;51.716;7.016;2023-03-23T02:59:27;5.20;;;3.03;;
71753;SDS011;59593;51.716;7.016;2023-03-23T03:01:55;4.73;;;2.60;;
71753;SDS011;59593;51.716;7.016;2023-03-23T03:04:27;6.63;;;3.10;;
71753;SDS011;59593;51.716;7.016;2023-03-23T03:12:05;4.47;;;3.10;;
71753;SDS011;59593;51.716;7.016;2023-03-23T03:14:39;3.73;;;3.10;;
71753;SDS011;59593;51.716;7.016;2023-03-23T03:19:52;3.67;;;3.10;;
71753;SDS011;59593;51.716;7.016;2023-03-23T03:22:24;4.23;;;3.10;;
71753;SDS011;59593;51.716;7.016;2023-03-23T03:24:55;4.13;;;3.20;;
71753;SDS011;59593;51.716;7.016;2023-03-23T03:27:22;4.87;;;3.10;;
71753;SDS011;59593;51.716;7.016;2023-03-23T03:29:51;4.57;;;3.00;;
71753;SDS011;59593;51.716;7.016;2023-03-23T03:32:22;5.80;;;3.30;;
71753;SDS011;59593;51.716;7.016;2023-03-23T03:34:56;5.67;;;3.20;;
71753;SDS011;59593;51.716;7.016;2023-03-23T03:37:23;3.50;;;2.97;;
71753;SDS011;59593;51.716;7.016;2023-03-23T03:39:49;4.20;;;3.03;;
71753;SDS011;59593;51.716;7.016;2023-03-23T03:42:16;3.77;;;2.80;;
71753;SDS011;59593;51.716;7.016;2023-03-23T03:44:42;3.87;;;2.87;;
71753;SDS011;59593;51.716;7.016;2023-03-23T03:47:07;3.77;;;2.70;;
71753;SDS011;59593;51.716;7.016;2023-03-23T03:49:33;4.87;;;2.90;;
71753;SDS011;59593;51.716;7.016;2023-03-23T03:51:58;3.47;;;2.57;;
71753;SDS011;59593;51.716;7.016;2023-03-23T03:54:24;3.47;;;2.67;;
71753;SDS011;59593;51.716;7.016;2023-03-23T03:56:50;4.37;;;2.60;;
71753;SDS011;59593;51.716;7.016;2023-03-23T03:59:16;2.40;;;2.20;;
71753;SDS011;59593;51.716;7.016;2023-03-23T04:01:42;3.50;;;2.77;;
71753;SDS011;59593;51.716;7.016;2023-03-23T04:04:08;4.23;;;2.63;;
71753;SDS011;59593;51.716;7.016;2023-03-23T04:06:33;4.20;;;2.80;;
71753;SDS011;59593;51.716;7.016;2023-03-23T04:09:01;8.33;;;2.70;;
71753;SDS011;59593;51.716;7.016;2023-03-23T04:11:30;3.57;;;2.80;;
71753;SDS011;59593;51.716;7.016;2023-03-23T04:13:57;4.03;;;2.60;;
71753;SDS011;59593;51.716;7.016;2023-03-23T04:16:22;4.00;;;2.70;;
71753;SDS011;59593;51.716;7.016;2023-03-23T04:18:48;3.33;;;2.70;;
71753;SDS011;59593;51.716;7.016;2023-03-23T04:21:14;4.07;;;3.00;;
71753;SDS011;59593;51.716;7.016;2023-03-23T04:23:41;4.80;;;2.87;;
71753;SDS011;59593;51.716;7.016;2023-03-23T04:26:07;3.87;;;2.30;;
71753;SDS011;59593;51.716;7.016;2023-03-23T04:28:32;4.27;;;2.43;;
71753;SDS011;59593;51.716;7.016;2023-03-23T04:30:58;3.03;;;2.63;;
71753;SDS011;59593;51.716;7.016;2023-03-23T04:33:26;3.50;;;2.80;;
71753;SDS011;59593;51.716;7.016;2023-03-23T04:35:55;3.90;;;2.50;;
71753;SDS011;59593;51.716;7.016;2023-03-23T04:38:27;5.00;;;2.80;;
71753;SDS011;59593;51.716;7.016;2023-03-23T04:40:55;3.63;;;2.80;;
71753;SDS011;59593;51.716;7.016;2023-03-23T04:43:22;4.77;;;2.70;;
71753;SDS011;59593;51.716;7.016;2023-03-23T04:45:56;3.10;;;2.70;;
71753;SDS011;59593;51.716;7.016;2023-03-23T04:48:26;3.27;;;2.60;;
71753;SDS011;59593;51.716;7.016;2023-03-23T04:50:54;4.87;;;2.77;;
71753;SDS011;59593;51.716;7.016;2023-03-23T04:53:21;4.07;;;2.77;;
71753;SDS011;59593;51.716;7.016;2023-03-23T04:55:46;4.37;;;2.80;;
71753;SDS011;59593;51.716;7.016;2023-03-23T04:58:14;4.37;;;2.57;;
71753;SDS011;59593;51.716;7.016;2023-03-23T05:00:41;4.83;;;2.80;;
71753;SDS011;59593;51.716;7.016;2023-03-23T05:03:08;3.73;;;2.80;;
71753;SDS011;59593;51.716;7.016;2023-03-23T05:05:41;4.20;;;2.90;;
71753;SDS011;59593;51.716;7.016;2023-03-23T05:08:07;5.73;;;2.93;;
71753;SDS011;59593;51.716;7.016;2023-03-23T05:10:33;3.60;;;2.73;;
71753;SDS011;59593;51.716;7.016;2023-03-23T05:12:58;5.60;;;3.10;;
71753;SDS011;59593;51.716;7.016;2023-03-23T05:15:24;4.30;;;2.80;;
71753;SDS011;59593;51.716;7.016;2023-03-23T05:17:52;4.63;;;3.10;;
71753;SDS011;59593;51.716;7.016;2023-03-23T05:20:18;5.17;;;3.23;;
71753;SDS011;59593;51.716;7.016;2023-03-23T05:22:45;3.53;;;3.07;;
71753;SDS011;59593;51.716;7.016;2023-03-23T05:25:15;4.43;;;3.23;;
71753;SDS011;59593;51.716;7.016;2023-03-23T05:27:43;4.50;;;3.00;;
71753;SDS011;59593;51.716;7.016;2023-03-23T05:30:14;8.40;;;3.40;;
71753;SDS011;59593;51.716;7.016;2023-03-23T05:32:41;6.47;;;3.50;;
71753;SDS011;59593;51.716;7.016;2023-03-23T05:35:09;7.33;;;3.43;;
71753;SDS011;59593;51.716;7.016;2023-03-23T05:37:36;4.87;;;3.63;;
71753;SDS011;59593;51.716;7.016;2023-03-23T05:40:02;5.83;;;3.40;;
71753;SDS011;59593;51.716;7.016;2023-03-23T05:42:32;6.83;;;3.40;;
71753;SDS011;59593;51.716;7.016;2023-03-23T05:44:59;4.87;;;3.20;;
71753;SDS011;59593;51.716;7.016;2023-03-23T05:47:25;4.80;;;3.40;;
71753;SDS011;59593;51.716;7.016;2023-03-23T05:49:51;5.93;;;3.60;;
71753;SDS011;59593;51.716;7.016;2023-03-23T05:52:17;4.10;;;3.00;;
71753;SDS011;59593;51.716;7.016;2023-03-23T05:54:43;5.77;;;3.47;;
71753;SDS011;59593;51.716;7.016;2023-03-23T05:57:10;5.57;;;3.23;;
71753;SDS011;59593;51.716;7.016;2023-03-23T05:59:36;5.87;;;2.90;;
71753;SDS011;59593;51.716;7.016;2023-03-23T06:02:02;4.43;;;3.00;;
71753;SDS011;59593;51.716;7.016;2023-03-23T06:04:29;6.63;;;3.50;;
71753;SDS011;59593;51.716;7.016;2023-03-23T06:06:54;5.70;;;3.40;;
71753;SDS011;59593;51.716;7.016;2023-03-23T06:09:20;6.90;;;3.30;;
71753;SDS011;59593;51.716;7.016;2023-03-23T06:11:48;6.17;;;3.17;;
71753;SDS011;59593;51.716;7.016;2023-03-23T06:14:13;6.00;;;3.30;;
71753;SDS011;59593;51.716;7.016;2023-03-23T06:16:39;7.43;;;3.47;;
71753;SDS011;59593;51.716;7.016;2023-03-23T06:19:05;6.13;;;3.17;;
71753;SDS011;59593;51.716;7.016;2023-03-23T06:21:31;5.80;;;3.00;;
71753;SDS011;59593;51.716;7.016;2023-03-23T06:23:57;6.13;;;3.63;;
71753;SDS011;59593;51.716;7.016;2023-03-23T06:26:34;4.40;;;3.13;;
71753;SDS011;59593;51.716;7.016;2023-03-23T06:29:02;4.20;;;3.17;;
71753;SDS011;59593;51.716;7.016;2023-03-23T06:31:35;6.30;;;3.20;;
71753;SDS011;59593;51.716;7.016;2023-03-23T06:34:13;5.93;;;3.60;;
71753;SDS011;59593;51.716;7.016;2023-03-23T06:36:39;7.33;;;3.33;;
71753;SDS011;59593;51.716;7.016;2023-03-23T06:39:05;5.57;;;3.00;;
71753;SDS011;59593;51.716;7.016;2023-03-23T06:41:31;6.67;;;3.20;;
71753;SDS011;59593;51.716;7.016;2023-03-23T06:43:58;4.93;;;3.03;;
71753;SDS011;59593;51.716;7.016;2023-03-23T06:46:24;4.60;;;3.00;;
71753;SDS011;59593;51.716;7.016;2023-03-23T06:48:49;7.47;;;3.40;;
71753;SDS011;59593;51.716;7.016;2023-03-23T06:51:16;5.73;;;3.10;;
71753;SDS011;59593;51.716;7.016;2023-03-23T06:53:43;6.95;;;3.38;;
71753;SDS011;59593;51.716;7.016;2023-03-23T06:56:09;7.23;;;3.50;;
71753;SDS011;59593;51.716;7.016;2023-03-23T06:58:43;7.80;;;3.70;;
71753;SDS011;59593;51.716;7.016;2023-03-23T07:01:12;6.07;;;3.53;;
71753;SDS011;59593;51.716;7.016;2023-03-23T07:03:40;7.83;;;3.67;;
71753;SDS011;59593;51.716;7.016;2023-03-23T07:06:06;8.00;;;3.73;;
71753;SDS011;59593;51.716;7.016;2023-03-23T07:08:32;5.60;;;3.20;;
71753;SDS011;59593;51.716;7.016;2023-03-23T07:10:58;7.33;;;3.30;;
71753;SDS011;59593;51.716;7.016;2023-03-23T07:13:24;6.03;;;3.10;;
71753;SDS011;59593;51.716;7.016;2023-03-23T07:15:51;5.67;;;3.00;;
71753;SDS011;59593;51.716;7.016;2023-03-23T07:18:17;5.63;;;3.30;;
71753;SDS011;59593;51.716;7.016;2023-03-23T07:20:42;6.27;;;3.17;;
71753;SDS011;59593;51.716;7.016;2023-03-23T07:23:08;8.20;;;3.47;;
71753;SDS011;59593;51.716;7.016;2023-03-23T07:25:34;6.00;;;3.10;;
71753;SDS011;59593;51.716;7.016;2023-03-23T07:28:01;6.17;;;3.20;;
71753;SDS011;59593;51.716;7.016;2023-03-23T07:30:27;7.67;;;3.17;;
71753;SDS011;59593;51.716;7.016;2023-03-23T07:32:56;9.30;;;3.20;;
71753;SDS011;59593;51.716;7.016;2023-03-23T07:35:22;5.43;;;3.40;;
71753;SDS011;59593;51.716;7.016;2023-03-23T07:37:48;6.00;;;3.20;;
71753;SDS011;59593;51.716;7.016;2023-03-23T07:40:15;6.13;;;3.00;;
71753;SDS011;59593;51.716;7.016;2023-03-23T07:42:41;6.33;;;2.97;;
71753;SDS011;59593;51.716;7.016;2023-03-23T07:45:09;8.43;;;2.87;;
71753;SDS011;59593;51.716;7.016;2023-03-23T07:47:36;7.60;;;2.63;;
71753;SDS011;59593;51.716;7.016;2023-03-23T07:50:02;6.40;;;3.00;;
71753;SDS011;59593;51.716;7.016;2023-03-23T07:52:29;7.77;;;3.23;;
71753;SDS011;59593;51.716;7.016;2023-03-23T07:54:55;9.17;;;2.83;;
71753;SDS011;59593;51.716;7.016;2023-03-23T07:57:21;6.47;;;3.00;;
71753;SDS011;59593;51.716;7.016;2023-03-23T07:59:47;5.97;;;2.60;;
71753;SDS011;59593;51.716;7.016;2023-03-23T08:02:13;5.03;;;2.97;;
71753;SDS011;59593;51.716;7.016;2023-03-23T08:04:38;7.47;;;3.13;;
71753;SDS011;59593;51.716;7.016;2023-03-23T08:07:04;6.20;;;2.60;;
71753;SDS011;59593;51.716;7.016;2023-03-23T08:09:30;7.90;;;2.90;;
71753;SDS011;59593;51.716;7.016;2023-03-23T08:11:56;5.50;;;2.70;;
71753;SDS011;59593;51.716;7.016;2023-03-23T08:14:22;6.23;;;2.70;;
71753;SDS011;59593;51.716;7.016;2023-03-23T08:16:53;6.80;;;3.03;;
71753;SDS011;59593;51.716;7.016;2023-03-23T08:19:21;7.07;;;3.00;;
71753;SDS011;59593;51.716;7.016;2023-03-23T08:21:47;6.70;;;2.97;;
71753;SDS011;59593;51.716;7.016;2023-03-23T08:24:13;5.85;;;3.28;;
71753;SDS011;59593;51.716;7.016;2023-03-23T08:26:39;7.30;;;2.80;;
71753;SDS011;59593;51.716;7.016;2023-03-23T08:29:05;7.15;;;2.60;;
71753;SDS011;59593;51.716;7.016;2023-03-23T08:31:31;8.17;;;3.13;;
71753;SDS011;59593;51.716;7.016;2023-03-23T08:33:59;7.20;;;2.80;;
71753;SDS011;59593;51.716;7.016;2023-03-23T08:36:25;6.37;;;2.80;;
71753;SDS011;59593;51.716;7.016;2023-03-23T08:38:52;7.30;;;2.70;;
71753;SDS011;59593;51.716;7.016;2023-03-23T08:41:18;8.83;;;2.97;;
71753;SDS011;59593;51.716;7.016;2023-03-23T08:43:44;7.70;;;2.70;;
71753;SDS011;59593;51.716;7.016;2023-03-23T08:46:09;6.17;;;2.90;;
71753;SDS011;59593;51.716;7.016;2023-03-23T08:48:38;6.63;;;2.97;;
71753;SDS011;59593;51.716;7.016;2023-03-23T08:51:04;6.00;;;2.70;;
71753;SDS011;59593;51.716;7.016;2023-03-23T08:53:31;7.07;;;2.87;;
71753;SDS011;59593;51.716;7.016;2023-03-23T08:56:07;10.60;;;2.87;;
71753;SDS011;59593;51.716;7.016;2023-03-23T08:58:36;6.77;;;3.10;;
71753;SDS011;59593;51.716;7.016;2023-03-23T09:01:03;6.50;;;2.90;;
71753;SDS011;59593;51.716;7.016;2023-03-23T09:03:31;7.70;;;3.00;;
71753;SDS011;59593;51.716;7.016;2023-03-23T09:06:02;6.03;;;2.80;;
71753;SDS011;59593;51.716;7.016;2023-03-23T09:08:30;6.87;;;2.70;;
71753;SDS011;59593;51.716;7.016;2023-03-23T09:11:00;4.77;;;2.50;;
71753;SDS011;59593;51.716;7.016;2023-03-23T09:13:34;6.03;;;2.67;;
71753;SDS011;59593;51.716;7.016;2023-03-23T09:16:00;8.13;;;2.37;;
71753;SDS011;59593;51.716;7.016;2023-03-23T09:18:26;9.23;;;2.93;;
71753;SDS011;59593;51.716;7.016;2023-03-23T09:20:54;7.97;;;2.80;;
71753;SDS011;59593;51.716;7.016;2023-03-23T09:23:20;7.83;;;2.57;;
71753;SDS011;59593;51.716;7.016;2023-03-23T09:25:46;10.53;;;3.00;;
71753;SDS011;59593;51.716;7.016;2023-03-23T09:28:12;4.27;;;1.90;;
71753;SDS011;59593;51.716;7.016;2023-03-23T09:30:44;10.67;;;3.17;;
71753;SDS011;59593;51.716;7.016;2023-03-23T09:33:10;3.73;;;1.37;;
71753;SDS011;59593;51.716;7.016;2023-03-23T09:35:36;2.93;;;0.90;;
71753;SDS011;59593;51.716;7.016;2023-03-23T09:38:03;2.70;;;1.00;;
71753;SDS011;59593;51.716;7.016;2023-03-23T09:48:51;3.00;;;1.10;;
71753;SDS011;59593;51.716;7.016;2023-03-23T09:51:27;3.53;;;1.00;;
71753;SDS011;59593;51.716;7.016;2023-03-23T09:53:57;2.27;;;1.00;;
71753;SDS011;59593;51.716;7.016;2023-03-23T09:56:38;3.63;;;1.10;;
71753;SDS011;59593;51.716;7.016;2023-03-23T10:01:47;2.97;;;1.20;;
71753;SDS011;59593;51.716;7.016;2023-03-23T10:06:52;3.97;;;1.30;;
71753;SDS011;59593;51.716;7.016;2023-03-23T10:09:23;5.47;;;1.27;;
71753;SDS011;59593;51.716;7.016;2023-03-23T10:17:02;3.20;;;1.33;;
71753;SDS011;59593;51.716;7.016;2023-03-23T10:19:44;2.27;;;1.10;;
71753;SDS011;59593;51.716;7.016;2023-03-23T10:22:14;3.33;;;1.13;;
71753;SDS011;59593;51.716;7.016;2023-03-23T10:24:48;5.90;;;1.33;;
71753;SDS011;59593;51.716;7.016;2023-03-23T10:27:44;5.13;;;1.30;;
71753;SDS011;59593;51.716;7.016;2023-03-23T10:33:30;5.00;;;1.20;;
71753;SDS011;59593;51.716;7.016;2023-03-23T10:35:48;3.20;;;1.20;;
71753;SDS011;59593;51.716;7.016;2023-03-23T10:41:04;3.20;;;1.07;;
71753;SDS011;59593;51.716;7.016;2023-03-23T10:43:36;4.70;;;1.30;;
71753;SDS011;59593;51.716;7.016;2023-03-23T10:46:04;3.70;;;1.00;;
71753;SDS011;59593;51.716;7.016;2023-03-23T10:48:39;2.23;;;1.00;;
71753;SDS011;59593;51.716;7.016;2023-03-23T10:51:06;2.83;;;0.97;;
71753;SDS011;59593;51.716;7.016;2023-03-23T10:53:37;3.60;;;0.97;;
71753;SDS011;59593;51.716;7.016;2023-03-23T10:56:19;3.43;;;1.00;;
71753;SDS011;59593;51.716;7.016;2023-03-23T10:58:54;5.07;;;1.27;;
71753;SDS011;59593;51.716;7.016;2023-03-23T11:01:27;3.20;;;1.10;;
71753;SDS011;59593;51.716;7.016;2023-03-23T11:03:59;4.20;;;1.40;;
71753;SDS011;59593;51.716;7.016;2023-03-23T11:06:30;3.70;;;1.50;;
71753;SDS011;59593;51.716;7.016;2023-03-23T11:09:09;4.77;;;1.43;;
71753;SDS011;59593;51.716;7.016;2023-03-23T11:11:43;4.13;;;1.30;;
71753;SDS011;59593;51.716;7.016;2023-03-23T11:16:53;3.80;;;1.03;;
71753;SDS011;59593;51.716;7.016;2023-03-23T11:24:35;4.43;;;1.40;;
71753;SDS011;59593;51.716;7.016;2023-03-23T11:27:05;7.27;;;1.50;;
71753;SDS011;59593;51.716;7.016;2023-03-23T11:29:42;4.63;;;1.33;;
71753;SDS011;59593;51.716;7.016;2023-03-23T11:32:12;4.60;;;1.40;;
71753;SDS011;59593;51.716;7.016;2023-03-23T11:34:42;4.17;;;1.50;;
71753;SDS011;59593;51.716;7.016;2023-03-23T11:37:14;3.57;;;1.47;;
71753;SDS011;59593;51.716;7.016;2023-03-23T11:39:49;3.07;;;1.13;;
71753;SDS011;59593;51.716;7.016;2023-03-23T11:42:35;3.53;;;1.47;;
71753;SDS011;59593;51.716;7.016;2023-03-23T11:45:16;3.43;;;1.40;;
71753;SDS011;59593;51.716;7.016;2023-03-23T11:50:32;2.70;;;1.47;;
71753;SDS011;59593;51.716;7.016;2023-03-23T11:58:29;5.60;;;1.53;;
71753;SDS011;59593;51.716;7.016;2023-03-23T12:03:48;3.30;;;1.53;;
71753;SDS011;59593;51.716;7.016;2023-03-23T12:06:30;3.17;;;1.30;;
71753;SDS011;59593;51.716;7.016;2023-03-23T12:14:36;3.73;;;1.40;;
71753;SDS011;59593;51.716;7.016;2023-03-23T12:23:06;4.57;;;1.93;;
71753;SDS011;59593;51.716;7.016;2023-03-23T12:44:07;2.70;;;1.47;;
71753;SDS011;59593;51.716;7.016;2023-03-23T12:49:10;2.93;;;1.70;;
71753;SDS011;59593;51.716;7.016;2023-03-23T12:51:49;1.70;;;1.20;;
71753;SDS011;59593;51.716;7.016;2023-03-23T12:59:53;2.45;;;1.30;;
71753;SDS011;59593;51.716;7.016;2023-03-23T13:02:26;1.90;;;1.20;;
71753;SDS011;59593;51.716;7.016;2023-03-23T13:05:40;2.93;;;1.30;;
71753;SDS011;59593;51.716;7.016;2023-03-23T13:07:48;2.92;;;1.42;;
71753;SDS011;59593;51.716;7.016;2023-03-23T13:10:30;3.10;;;1.55;;
71753;SDS011;59593;51.716;7.016;2023-03-23T13:13:00;2.50;;;1.13;;
71753;SDS011;59593;51.716;7.016;2023-03-23T13:21:05;3.42;;;1.50;;
71753;SDS011;59593;51.716;7.016;2023-03-23T13:23:34;3.45;;;1.88;;
71753;SDS011;59593;51.716;7.016;2023-03-23T13:26:14;2.85;;;1.70;;
71753;SDS011;59593;51.716;7.016;2023-03-23T13:31:36;3.33;;;1.80;;
71753;SDS011;59593;51.716;7.016;2023-03-23T13:36:52;2.92;;;1.50;;
71753;SDS011;59593;51.716;7.016;2023-03-23T13:39:24;1.88;;;1.50;;
71753;SDS011;59593;51.716;7.016;2023-03-23T13:49:52;5.07;;;2.05;;
71753;SDS011;59593;51.716;7.016;2023-03-23T13:52:36;6.70;;;1.95;;
71753;SDS011;59593;51.716;7.016;2023-03-23T14:03:24;3.67;;;1.80;;
71753;SDS011;59593;51.716;7.016;2023-03-23T14:08:24;4.32;;;1.98;;
71753;SDS011;59593;51.716;7.016;2023-03-23T14:11:16;5.55;;;2.28;;
71753;SDS011;59593;51.716;7.016;2023-03-23T14:19:00;6.25;;;2.30;;
71753;SDS011;59593;51.716;7.016;2023-03-23T14:21:38;5.75;;;2.10;;
71753;SDS011;59593;51.716;7.016;2023-03-23T14:24:15;8.45;;;2.60;;
71753;SDS011;59593;51.716;7.016;2023-03-23T14:26:43;7.05;;;2.50;;
71753;SDS011;59593;51.716;7.016;2023-03-23T14:29:10;5.43;;;2.17;;
71753;SDS011;59593;51.716;7.016;2023-03-23T14:31:37;7.85;;;2.50;;
71753;SDS011;59593;51.716;7.016;2023-03-23T14:34:09;9.00;;;2.40;;
71753;SDS011;59593;51.716;7.016;2023-03-23T14:36:40;6.10;;;2.30;;
71753;SDS011;59593;51.716;7.016;2023-03-23T14:42:02;7.88;;;2.60;;
71753;SDS011;59593;51.716;7.016;2023-03-23T14:44:34;10.73;;;2.70;;
71753;SDS011;59593;51.716;7.016;2023-03-23T14:47:06;6.20;;;2.30;;
71753;SDS011;59593;51.716;7.016;2023-03-23T14:49:36;5.07;;;2.30;;
71753;SDS011;59593;51.716;7.016;2023-03-23T14:52:11;5.72;;;2.42;;
71753;SDS011;59593;51.716;7.016;2023-03-23T14:54:41;7.80;;;2.67;;
71753;SDS011;59593;51.716;7.016;2023-03-23T14:59:49;4.53;;;2.22;;
71753;SDS011;59593;51.716;7.016;2023-03-23T15:02:25;8.23;;;2.50;;
71753;SDS011;59593;51.716;7.016;2023-03-23T15:05:01;7.38;;;2.78;;
71753;SDS011;59593;51.716;7.016;2023-03-23T15:07:34;6.70;;;2.70;;
71753;SDS011;59593;51.716;7.016;2023-03-23T15:10:05;4.13;;;2.80;;
71753;SDS011;59593;51.716;7.016;2023-03-23T15:12:32;5.45;;;2.88;;
71753;SDS011;59593;51.716;7.016;2023-03-23T15:15:00;7.07;;;2.90;;
71753;SDS011;59593;51.716;7.016;2023-03-23T15:17:31;5.95;;;3.00;;
71753;SDS011;59593;51.716;7.016;2023-03-23T15:20:06;7.20;;;4.45;;
71753;SDS011;59593;51.716;7.016;2023-03-23T15:22:52;7.75;;;5.47;;
71753;SDS011;59593;51.716;7.016;2023-03-23T15:27:58;10.30;;;6.53;;
71753;SDS011;59593;51.716;7.016;2023-03-23T15:30:33;8.65;;;6.20;;
71753;SDS011;59593;51.716;7.016;2023-03-23T15:35:38;9.27;;;5.43;;
71753;SDS011;59593;51.716;7.016;2023-03-23T15:38:14;6.22;;;5.35;;
71753;SDS011;59593;51.716;7.016;2023-03-23T15:40:48;5.95;;;4.32;;
71753;SDS011;59593;51.716;7.016;2023-03-23T15:43:17;6.93;;;4.03;;
71753;SDS011;59593;51.716;7.016;2023-03-23T15:45:52;7.68;;;4.07;;
71753;SDS011;59593;51.716;7.016;2023-03-23T15:48:19;7.68;;;3.70;;
71753;SDS011;59593;51.716;7.016;2023-03-23T15:50:46;7.90;;;4.90;;
71753;SDS011;59593;51.716;7.016;2023-03-23T15:53:19;8.00;;;4.40;;
71753;SDS011;59593;51.716;7.016;2023-03-23T15:56:06;6.63;;;3.72;;
71753;SDS011;59593;51.716;7.016;2023-03-23T15:58:34;7.68;;;2.85;;
71753;SDS011;59593;51.716;7.016;2023-03-23T16:01:02;8.10;;;3.33;;
71753;SDS011;59593;51.716;7.016;2023-03-23T16:03:38;4.80;;;2.70;;
71753;SDS011;59593;51.716;7.016;2023-03-23T16:06:09;6.25;;;2.35;;
71753;SDS011;59593;51.716;7.016;2023-03-23T16:08:36;5.53;;;2.42;;
71753;SDS011;59593;51.716;7.016;2023-03-23T16:11:05;4.85;;;2.15;;
71753;SDS011;59593;51.716;7.016;2023-03-23T16:13:31;7.65;;;2.55;;
71753;SDS011;59593;51.716;7.016;2023-03-23T16:15:57;4.28;;;1.90;;
71753;SDS011;59593;51.716;7.016;2023-03-23T16:18:23;5.60;;;2.08;;
71753;SDS011;59593;51.716;7.016;2023-03-23T16:20:49;5.80;;;1.98;;
71753;SDS011;59593;51.716;7.016;2023-03-23T16:23:15;7.93;;;1.80;;
71753;SDS011;59593;51.716;7.016;2023-03-23T16:25:41;6.75;;;2.03;;
71753;SDS011;59593;51.716;7.016;2023-03-23T16:28:08;5.05;;;1.58;;
71753;SDS011;59593;51.716;7.016;2023-03-23T16:30:37;2.75;;;1.30;;
71753;SDS011;59593;51.716;7.016;2023-03-23T16:33:03;3.92;;;1.30;;
71753;SDS011;59593;51.716;7.016;2023-03-23T16:35:28;4.13;;;1.70;;
71753;SDS011;59593;51.716;7.016;2023-03-23T16:37:57;8.30;;;2.40;;
71753;SDS011;59593;51.716;7.016;2023-03-23T16:40:23;9.27;;;2.35;;
71753;SDS011;59593;51.716;7.016;2023-03-23T16:42:49;4.30;;;2.50;;
71753;SDS011;59593;51.716;7.016;2023-03-23T16:45:15;4.53;;;1.92;;
71753;SDS011;59593;51.716;7.016;2023-03-23T16:47:42;7.07;;;2.30;;
71753;SDS011;59593;51.716;7.016;2023-03-23T16:50:09;5.43;;;2.25;;
71753;SDS011;59593;51.716;7.016;2023-03-23T16:52:36;7.00;;;2.35;;
71753;SDS011;59593;51.716;7.016;2023-03-23T16:55:06;7.30;;;2.33;;
71753;SDS011;59593;51.716;7.016;2023-03-23T16:57:33;10.32;;;2.72;;
71753;SDS011;59593;51.716;7.016;2023-03-23T17:00:01;6.57;;;2.70;;
71753;SDS011;59593;51.716;7.016;2023-03-23T17:02:30;10.38;;;3.35;;
71753;SDS011;59593;51.716;7.016;2023-03-23T17:04:56;9.48;;;3.35;;
71753;SDS011;59593;51.716;7.016;2023-03-23T17:07:22;8.27;;;3.35;;
71753;SDS011;59593;51.716;7.016;2023-03-23T17:09:48;10.77;;;3.10;;
71753;SDS011;59593;51.716;7.016;2023-03-23T17:12:14;9.18;;;3.22;;
71753;SDS011;59593;51.716;7.016;2023-03-23T17:14:40;8.68;;;2.95;;
71753;SDS011;59593;51.716;7.016;2023-03-23T17:17:06;9.43;;;3.38;;
71753;SDS011;59593;51.716;7.016;2023-03-23T17:19:32;5.78;;;2.55;;
71753;SDS011;59593;51.716;7.016;2023-03-23T17:21:58;8.18;;;2.83;;
71753;SDS011;59593;51.716;7.016;2023-03-23T17:24:24;7.32;;;3.00;;
71753;SDS011;59593;51.716;7.016;2023-03-23T17:26:51;7.20;;;3.03;;
71753;SDS011;59593;51.716;7.016;2023-03-23T17:29:17;9.05;;;4.35;;
71753;SDS011;59593;51.716;7.016;2023-03-23T17:31:47;9.13;;;4.43;;
71753;SDS011;59593;51.716;7.016;2023-03-23T17:34:13;11.07;;;4.80;;
71753;SDS011;59593;51.716;7.016;2023-03-23T17:36:39;11.13;;;4.25;;
71753;SDS011;59593;51.716;7.016;2023-03-23T17:39:04;9.30;;;5.25;;
71753;SDS011;59593;51.716;7.016;2023-03-23T17:41:30;7.13;;;4.00;;